Time;durP1;ratioP1;P1;durP2;ratioP2;P2;SDS_P1;SDS_P2;PMS_P1;PMS_P2;Temp;Humidity;BMP_temperature;BMP_pressure;BME280_temperature;BME280_humidity;BME280_pressure;Samples;Min_cycle;Max_cycle;Signal;HPM_P1;HPM_P2
2023/01/22 00:01:13;;;;;;;1999.90;761.57;;;0.80;99.90;;;;;;5022661;28;20241;-52
2023/01/22 00:03:42;;;;;;;1999.90;500.97;;;0.90;99.90;;;;;;5027845;28;20357;-52
2023/01/22 00:06:13;;;;;;;1999.90;712.63;;;0.80;99.90;;;;;;5021261;28;20205;-51
2023/01/22 00:08:43;;;;;;;1999.90;835.40;;;0.80;99.90;;;;;;5029681;28;20211;-52
2023/01/22 00:11:12;;;;;;;1999.90;725.27;;;0.80;99.90;;;;;;5029839;28;20224;-52
2023/01/22 00:13:40;;;;;;;1363.60;309.53;;;0.80;99.90;;;;;;5031376;28;20224;-52
2023/01/22 00:16:10;;;;;;;1999.90;538.73;;;0.80;99.90;;;;;;5031193;28;20622;-52
2023/01/22 00:18:38;;;;;;;1370.83;370.87;;;0.80;99.90;;;;;;5026771;28;20208;-52
2023/01/22 00:21:06;;;;;;;1999.90;515.63;;;0.90;99.90;;;;;;5029988;28;20655;-52
2023/01/22 00:23:35;;;;;;;1999.90;650.47;;;0.90;99.90;;;;;;5019886;28;20202;-52
2023/01/22 00:26:06;;;;;;;907.73;324.87;;;0.90;99.90;;;;;;5029959;28;20607;-52
2023/01/22 00:28:36;;;;;;;1874.57;387.37;;;0.90;99.90;;;;;;5030145;28;20202;-52
2023/01/22 00:31:05;;;;;;;1999.90;748.83;;;0.90;99.90;;;;;;5030685;28;20286;-52
2023/01/22 00:33:34;;;;;;;1999.90;684.57;;;0.80;99.90;;;;;;5030334;28;20216;-52
2023/01/22 00:36:06;;;;;;;1627.37;363.00;;;0.90;99.90;;;;;;5030558;28;20296;-52
2023/01/22 00:38:35;;;;;;;658.90;260.47;;;0.90;99.90;;;;;;5029576;28;20302;-52
2023/01/22 00:41:06;;;;;;;1999.90;727.30;;;0.90;99.90;;;;;;5030296;28;20699;-50
2023/01/22 00:43:37;;;;;;;1243.33;306.30;;;0.90;99.90;;;;;;5022159;28;20233;-52
2023/01/22 00:46:06;;;;;;;1999.90;682.80;;;1.00;99.90;;;;;;5030405;28;20207;-51
2023/01/22 00:48:35;;;;;;;1999.90;722.50;;;0.90;99.90;;;;;;5030352;28;20237;-52
2023/01/22 00:51:03;;;;;;;1936.87;385.47;;;0.90;99.90;;;;;;5029440;28;20256;-52
2023/01/22 00:53:31;;;;;;;1999.90;661.63;;;0.90;99.90;;;;;;5029530;28;20241;-52
2023/01/22 00:56:00;;;;;;;1999.90;895.43;;;0.90;99.90;;;;;;5030393;28;20243;-52
2023/01/22 00:58:30;;;;;;;1999.90;637.13;;;1.10;99.90;;;;;;5030056;28;20267;-51
2023/01/22 01:00:58;;;;;;;1999.90;501.10;;;1.00;99.90;;;;;;5029688;28;20750;-52
2023/01/22 01:03:30;;;;;;;140.73;108.73;;;1.00;99.90;;;;;;5029573;28;20303;-52
2023/01/22 01:06:00;;;;;;;1347.53;360.23;;;0.90;99.90;;;;;;5030076;28;20732;-51
2023/01/22 01:08:30;;;;;;;352.17;187.40;;;1.00;99.90;;;;;;5029405;28;20205;-52
2023/01/22 01:11:00;;;;;;;1576.97;442.50;;;1.00;99.90;;;;;;5029990;28;20268;-51
2023/01/22 01:13:32;;;;;;;1829.17;387.83;;;1.00;99.90;;;;;;5029433;28;20260;-52
2023/01/22 01:16:01;;;;;;;1999.90;712.60;;;1.00;99.90;;;;;;5029609;28;20268;-51
2023/01/22 01:18:30;;;;;;;1999.90;489.50;;;0.90;99.90;;;;;;5029960;28;20243;-52
2023/01/22 01:20:59;;;;;;;1410.83;407.90;;;0.90;99.90;;;;;;5029917;28;20249;-52
2023/01/22 01:23:28;;;;;;;1999.90;631.03;;;1.00;99.90;;;;;;5029311;28;20249;-52
2023/01/22 01:25:56;;;;;;;1999.90;584.70;;;1.00;99.90;;;;;;5030763;28;20237;-51
2023/01/22 01:28:25;;;;;;;1999.90;726.80;;;1.00;99.90;;;;;;5029574;28;20217;-51
2023/01/22 01:30:54;;;;;;;1996.93;507.60;;;1.00;99.90;;;;;;5029395;28;20321;-52
2023/01/22 01:33:22;;;;;;;1999.90;627.83;;;1.00;99.90;;;;;;5028846;28;20667;-52
2023/01/22 01:35:59;;;;;;;1415.03;332.97;;;1.00;99.90;;;;;;5029451;28;20694;-52
2023/01/22 01:38:27;;;;;;;1313.37;388.13;;;1.00;99.90;;;;;;5015672;28;20237;-52
2023/01/22 01:40:55;;;;;;;1458.40;376.73;;;1.00;99.90;;;;;;5028934;28;20759;-52
2023/01/22 01:43:23;;;;;;;1653.90;404.97;;;1.00;99.90;;;;;;5028921;28;20209;-52
2023/01/22 01:45:51;;;;;;;1999.90;388.13;;;1.00;99.90;;;;;;5028754;28;20308;-52
2023/01/22 01:48:35;;;;;;;1722.90;368.53;;;1.00;99.90;;;;;;5028757;28;20245;-52
2023/01/22 01:51:09;;;;;;;1432.80;377.73;;;1.00;99.90;;;;;;5029162;28;20749;-52
2023/01/22 01:53:39;;;;;;;1999.90;478.80;;;1.00;99.90;;;;;;5027212;28;20248;-51
2023/01/22 01:56:10;;;;;;;1166.17;362.57;;;1.00;99.90;;;;;;5029022;28;20685;-51
2023/01/22 01:58:41;;;;;;;1775.97;411.23;;;1.00;99.90;;;;;;5025941;28;20906;-52
2023/01/22 02:01:13;;;;;;;1999.90;733.83;;;1.10;99.90;;;;;;5028797;28;20269;-51
2023/01/22 02:03:43;;;;;;;1999.90;725.13;;;1.00;99.90;;;;;;5025860;28;20272;-52
2023/01/22 02:06:13;;;;;;;451.70;171.03;;;1.00;99.90;;;;;;5022890;28;20316;-52
2023/01/22 02:08:44;;;;;;;1871.17;425.20;;;1.10;99.90;;;;;;5025069;28;20264;-51
2023/01/22 02:11:12;;;;;;;445.67;176.47;;;1.10;99.90;;;;;;5024559;28;20258;-51
2023/01/22 02:13:45;;;;;;;1999.90;728.43;;;1.10;99.90;;;;;;5028931;28;20252;-52
2023/01/22 02:16:13;;;;;;;1999.90;539.43;;;1.00;99.90;;;;;;5029361;28;20289;-51
2023/01/22 02:18:42;;;;;;;1999.90;535.60;;;1.10;99.90;;;;;;5028849;28;20263;-51
2023/01/22 02:21:37;;;;;;;927.97;298.17;;;1.00;99.90;;;;;;5028650;28;20261;-51
2023/01/22 02:24:07;;;;;;;1437.53;378.10;;;1.10;99.90;;;;;;5028659;28;20210;-52
2023/01/22 02:26:35;;;;;;;1999.90;482.23;;;1.10;99.90;;;;;;5028940;28;20205;-52
2023/01/22 02:29:04;;;;;;;415.13;146.43;;;1.10;99.90;;;;;;5028645;28;20707;-52
2023/01/22 02:31:32;;;;;;;886.43;253.40;;;1.10;99.90;;;;;;5028347;28;20313;-51
2023/01/22 02:34:01;;;;;;;1999.90;633.10;;;1.10;99.90;;;;;;5028492;28;20236;-51
2023/01/22 02:36:29;;;;;;;509.20;159.77;;;1.10;99.90;;;;;;5028967;28;20648;-52
2023/01/22 02:38:58;;;;;;;1999.90;600.60;;;1.10;99.90;;;;;;5027501;28;20224;-52
2023/01/22 02:41:27;;;;;;;1999.90;595.63;;;1.10;99.90;;;;;;5024968;28;20236;-52
2023/01/22 02:43:55;;;;;;;513.80;201.13;;;1.10;99.90;;;;;;5028153;28;20238;-51
2023/01/22 02:46:24;;;;;;;874.50;242.00;;;1.10;99.90;;;;;;5028638;28;20764;-52
2023/01/22 02:48:52;;;;;;;507.47;212.90;;;1.10;99.90;;;;;;5028809;28;20214;-51
2023/01/22 02:51:21;;;;;;;1999.90;425.60;;;1.10;99.90;;;;;;5031883;28;20224;-51
2023/01/22 02:53:49;;;;;;;1999.90;520.67;;;1.10;99.90;;;;;;5032322;28;20220;-52
2023/01/22 02:56:19;;;;;;;1101.37;270.07;;;1.10;99.90;;;;;;5026307;28;20209;-51
2023/01/22 02:58:47;;;;;;;1942.50;468.13;;;1.10;99.90;;;;;;5031235;28;20309;-52
2023/01/22 03:01:21;;;;;;;1999.90;589.30;;;1.10;99.90;;;;;;5030449;28;20262;-52
2023/01/22 03:03:50;;;;;;;1999.90;423.57;;;1.10;99.90;;;;;;5032009;28;20202;-51
2023/01/22 03:06:20;;;;;;;1999.90;832.80;;;1.10;99.90;;;;;;5032234;28;20248;-51
2023/01/22 03:08:49;;;;;;;1035.87;304.53;;;1.00;99.90;;;;;;5032022;28;20303;-52
2023/01/22 03:11:18;;;;;;;165.53;125.00;;;1.10;99.90;;;;;;5031374;28;20256;-52
2023/01/22 03:22:05;;;;;;;1999.90;809.63;;;1.10;99.90;;;;;;5032010;28;20272;-51
2023/01/22 03:24:33;;;;;;;418.33;205.70;;;1.30;99.90;;;;;;5032030;28;20971;-51
2023/01/22 03:27:03;;;;;;;1999.90;630.50;;;1.20;99.90;;;;;;5031584;28;20420;-51
2023/01/22 03:29:31;;;;;;;1747.10;375.40;;;1.20;99.90;;;;;;5026628;28;20233;-52
2023/01/22 03:31:59;;;;;;;1337.90;332.57;;;1.10;99.90;;;;;;5031385;28;20248;-52
2023/01/22 03:34:28;;;;;;;1999.90;834.30;;;1.10;99.90;;;;;;5032276;28;20208;-51
2023/01/22 03:36:56;;;;;;;1587.73;438.30;;;1.10;99.90;;;;;;5031873;28;20214;-51
2023/01/22 03:39:24;;;;;;;1999.90;887.37;;;1.10;99.90;;;;;;5031155;28;20241;-51
2023/01/22 03:41:52;;;;;;;1999.90;607.57;;;1.20;99.90;;;;;;5031529;28;20227;-51
2023/01/22 03:44:22;;;;;;;618.90;189.30;;;1.20;99.90;;;;;;5031464;28;20299;-52
2023/01/22 03:46:50;;;;;;;1999.90;744.67;;;1.20;99.90;;;;;;5031353;28;20268;-52
2023/01/22 03:49:18;;;;;;;1053.17;243.77;;;1.30;99.90;;;;;;5031490;28;20229;-52
2023/01/22 03:51:46;;;;;;;1023.23;243.73;;;1.20;99.90;;;;;;5031343;28;20252;-52
2023/01/22 03:54:16;;;;;;;665.63;193.73;;;1.20;99.90;;;;;;5031306;28;20241;-52
2023/01/22 03:56:44;;;;;;;1999.90;808.57;;;1.20;99.90;;;;;;5031708;28;20213;-52
2023/01/22 03:59:12;;;;;;;542.93;215.40;;;1.30;99.90;;;;;;5031922;28;20255;-52
2023/01/22 04:01:41;;;;;;;1999.90;501.87;;;1.30;99.90;;;;;;5031086;28;20309;-51
2023/01/22 04:04:09;;;;;;;1999.90;899.30;;;1.30;99.90;;;;;;5031357;28;20255;-52
2023/01/22 04:06:37;;;;;;;1363.90;291.80;;;1.10;99.90;;;;;;5030385;28;20296;-52
2023/01/22 04:09:05;;;;;;;1999.90;416.53;;;1.10;99.90;;;;;;5028612;28;20218;-52
2023/01/22 04:11:33;;;;;;;540.07;197.43;;;1.10;99.90;;;;;;5031358;28;20253;-52
2023/01/22 04:14:01;;;;;;;1701.73;344.90;;;1.10;99.90;;;;;;5031110;28;20293;-51
2023/01/22 04:16:29;;;;;;;1002.97;291.53;;;1.20;99.90;;;;;;5031037;28;20305;-52
2023/01/22 04:18:59;;;;;;;1184.40;316.03;;;1.20;99.90;;;;;;5030777;28;20207;-52
2023/01/22 04:21:27;;;;;;;275.13;115.57;;;1.20;99.90;;;;;;5031080;28;20223;-52
2023/01/22 04:23:55;;;;;;;283.43;168.63;;;1.20;99.90;;;;;;5024641;28;20751;-52
2023/01/22 04:26:23;;;;;;;277.50;144.30;;;1.20;99.90;;;;;;5029490;28;20209;-52
2023/01/22 04:28:51;;;;;;;1999.90;700.70;;;1.20;99.90;;;;;;5030724;28;20244;-52
2023/01/22 04:31:19;;;;;;;1999.90;645.23;;;1.20;99.90;;;;;;5030307;28;20684;-52
2023/01/22 04:33:47;;;;;;;593.83;182.17;;;1.20;99.90;;;;;;5030366;28;20206;-52
2023/01/22 04:36:17;;;;;;;331.03;144.13;;;1.20;99.90;;;;;;5030425;28;20817;-52
2023/01/22 04:38:45;;;;;;;1999.90;457.63;;;1.30;99.90;;;;;;5030556;28;20249;-52
2023/01/22 04:41:13;;;;;;;1489.70;296.73;;;1.20;99.90;;;;;;5030491;28;20815;-51
2023/01/22 04:43:41;;;;;;;317.00;131.03;;;1.20;99.90;;;;;;5030539;28;20260;-52
2023/01/22 04:46:09;;;;;;;1999.90;635.30;;;1.20;99.90;;;;;;5029895;28;20206;-51
2023/01/22 04:48:37;;;;;;;691.27;222.37;;;1.30;99.90;;;;;;5030520;28;20234;-52
2023/01/22 04:51:05;;;;;;;790.20;218.20;;;1.30;99.90;;;;;;5030124;28;20262;-52
2023/01/22 04:53:36;;;;;;;1999.90;486.97;;;1.30;99.90;;;;;;5029332;28;20206;-51
2023/01/22 04:56:05;;;;;;;566.03;187.50;;;1.30;99.90;;;;;;5028326;28;20658;-52
2023/01/22 04:58:33;;;;;;;1999.90;587.50;;;1.30;99.90;;;;;;5024933;28;20741;-52
2023/01/22 05:01:01;;;;;;;1999.90;691.80;;;1.30;99.90;;;;;;5030020;28;20252;-52
2023/01/22 05:03:29;;;;;;;584.63;185.23;;;1.40;99.90;;;;;;5029470;28;20252;-52
2023/01/22 05:05:57;;;;;;;1500.17;383.87;;;1.40;99.90;;;;;;5021892;28;20211;-52
2023/01/22 05:08:25;;;;;;;339.60;132.77;;;1.30;99.90;;;;;;5026396;28;20263;-52
2023/01/22 05:10:54;;;;;;;1999.90;680.47;;;1.30;99.90;;;;;;5028632;28;20269;-52
2023/01/22 05:13:22;;;;;;;1999.90;724.93;;;1.30;99.90;;;;;;5029237;28;20258;-52
2023/01/22 05:15:50;;;;;;;1999.90;654.17;;;1.30;99.90;;;;;;5029933;28;20240;-51
2023/01/22 05:18:19;;;;;;;742.27;199.43;;;1.30;99.90;;;;;;5029406;28;20339;-52
2023/01/22 05:20:47;;;;;;;1999.90;823.30;;;1.30;99.90;;;;;;5024301;28;20255;-52
2023/01/22 05:23:15;;;;;;;1999.90;608.33;;;1.30;99.90;;;;;;5023198;28;20796;-51
2023/01/22 05:25:48;;;;;;;1999.90;593.13;;;1.20;99.90;;;;;;5029334;28;20245;-52
2023/01/22 05:28:17;;;;;;;1999.90;373.47;;;1.20;99.90;;;;;;5016214;28;20237;-51
2023/01/22 05:30:47;;;;;;;1999.90;516.17;;;1.20;99.90;;;;;;5029395;28;20840;-52
2023/01/22 05:33:15;;;;;;;1999.90;455.30;;;1.20;99.90;;;;;;5029409;28;20256;-51
2023/01/22 05:35:43;;;;;;;1999.90;651.73;;;1.20;99.90;;;;;;5029172;28;20252;-52
2023/01/22 05:38:11;;;;;;;1976.57;585.77;;;1.30;99.90;;;;;;5028883;28;20209;-51
2023/01/22 05:40:39;;;;;;;1414.00;299.20;;;1.30;99.90;;;;;;5029112;28;20295;-52
2023/01/22 05:43:07;;;;;;;1999.90;395.43;;;1.30;99.90;;;;;;5029174;28;20312;-51
2023/01/22 05:45:36;;;;;;;1999.90;560.47;;;1.30;99.90;;;;;;5029233;28;20242;-52
2023/01/22 05:48:05;;;;;;;1589.47;437.30;;;1.20;99.90;;;;;;5018969;28;20233;-52
2023/01/22 05:50:33;;;;;;;1745.53;324.27;;;1.30;99.90;;;;;;5028790;28;20229;-51
2023/01/22 05:53:01;;;;;;;1537.77;331.87;;;1.30;99.90;;;;;;5029035;28;20285;-51
2023/01/22 05:55:29;;;;;;;406.33;190.93;;;1.30;99.90;;;;;;5015218;28;20234;-52
2023/01/22 05:57:57;;;;;;;1947.47;371.83;;;1.30;99.90;;;;;;5029145;28;20753;-51
2023/01/22 06:00:26;;;;;;;1999.90;608.67;;;1.30;99.90;;;;;;5024017;28;20230;-52
2023/01/22 06:02:57;;;;;;;1999.90;724.70;;;1.30;99.90;;;;;;5028693;28;20257;-52
2023/01/22 06:05:25;;;;;;;488.40;158.47;;;1.30;99.90;;;;;;5015872;28;20203;-52
2023/01/22 06:07:53;;;;;;;1999.90;552.73;;;1.30;99.90;;;;;;5028521;28;20657;-51
2023/01/22 06:10:21;;;;;;;1573.93;350.90;;;1.30;99.90;;;;;;5028144;28;20758;-51
2023/01/22 06:12:49;;;;;;;252.90;106.30;;;1.30;99.90;;;;;;5028728;28;20205;-52
2023/01/22 06:15:17;;;;;;;296.70;134.53;;;1.30;99.90;;;;;;5028684;28;20313;-51
2023/01/22 06:17:45;;;;;;;162.70;96.07;;;1.30;99.90;;;;;;5028203;28;20909;-52
2023/01/22 06:20:15;;;;;;;1056.60;279.40;;;1.30;99.90;;;;;;5027516;28;20266;-51
2023/01/22 06:22:43;;;;;;;1928.97;411.80;;;1.30;99.90;;;;;;5025094;28;20261;-52
2023/01/22 06:25:11;;;;;;;1999.90;509.17;;;1.30;99.90;;;;;;5024024;28;20644;-52
2023/01/22 06:27:39;;;;;;;310.47;100.77;;;1.30;99.90;;;;;;5033007;28;20237;-52
2023/01/22 06:30:08;;;;;;;1999.90;692.37;;;1.40;99.90;;;;;;5032811;28;20233;-52
2023/01/22 06:32:36;;;;;;;1999.90;774.13;;;1.40;99.90;;;;;;5032407;28;20237;-52
2023/01/22 06:35:05;;;;;;;1999.90;450.27;;;1.30;99.90;;;;;;5032575;28;20253;-51
2023/01/22 06:37:35;;;;;;;1984.00;407.90;;;1.30;99.90;;;;;;5025936;28;20683;-51
2023/01/22 06:40:03;;;;;;;1999.90;524.07;;;1.30;99.90;;;;;;5032128;28;20295;-52
2023/01/22 06:42:31;;;;;;;1999.90;526.37;;;1.40;99.90;;;;;;5031881;28;20308;-52
2023/01/22 06:44:59;;;;;;;129.90;95.60;;;1.40;99.90;;;;;;5031271;28;20241;-51
2023/01/22 06:47:27;;;;;;;1999.90;999.90;;;1.30;99.90;;;;;;5036670;28;20289;-51
2023/01/22 06:49:55;;;;;;;1680.97;383.20;;;1.50;99.90;;;;;;5042295;28;20312;-52
2023/01/22 06:52:23;;;;;;;1070.33;276.57;;;1.40;99.90;;;;;;5044044;28;20203;-53
2023/01/22 06:54:52;;;;;;;1999.90;742.53;;;1.40;99.90;;;;;;5047673;28;20232;-50
2023/01/22 06:57:20;;;;;;;1999.90;698.87;;;1.40;99.90;;;;;;5046953;28;20313;-52
2023/01/22 06:59:48;;;;;;;1943.70;418.47;;;1.50;99.90;;;;;;5043910;28;20314;-51
2023/01/22 07:02:18;;;;;;;1975.40;429.47;;;1.40;99.90;;;;;;5039775;28;20238;-53
2023/01/22 07:04:46;;;;;;;1999.90;845.10;;;1.40;99.90;;;;;;5043538;28;20628;-53
2023/01/22 07:07:15;;;;;;;1999.90;977.87;;;1.50;99.90;;;;;;5046244;28;20292;-52
2023/01/22 07:09:43;;;;;;;541.77;226.03;;;1.40;99.90;;;;;;5050482;28;20221;-52
2023/01/22 07:12:12;;;;;;;1942.90;312.70;;;1.40;99.90;;;;;;5047160;28;20973;-50
2023/01/22 07:14:40;;;;;;;1999.90;734.90;;;1.40;99.90;;;;;;5041927;28;20214;-50
2023/01/22 07:17:08;;;;;;;439.40;173.50;;;1.60;99.90;;;;;;5042644;28;20233;-50
2023/01/22 07:19:36;;;;;;;278.83;102.13;;;1.50;99.90;;;;;;5048484;28;20241;-52
2023/01/22 07:22:04;;;;;;;1266.47;402.87;;;1.50;99.90;;;;;;5050879;28;20292;-53
2023/01/22 07:24:32;;;;;;;641.70;152.77;;;1.50;99.90;;;;;;5050554;28;20655;-51
2023/01/22 07:27:01;;;;;;;1999.90;523.43;;;1.50;99.90;;;;;;5048994;28;20198;-52
2023/01/22 07:29:31;;;;;;;320.50;93.03;;;1.50;99.90;;;;;;5043759;28;20212;-53
2023/01/22 07:31:59;;;;;;;283.90;113.03;;;1.50;99.90;;;;;;5049023;28;20256;-51
2023/01/22 07:34:27;;;;;;;1999.90;999.90;;;1.50;99.90;;;;;;5048264;28;20830;-52
2023/01/22 07:36:55;;;;;;;1999.90;458.70;;;1.60;99.90;;;;;;5042405;28;20213;-52
2023/01/22 07:39:23;;;;;;;936.90;255.43;;;1.50;99.90;;;;;;5043908;28;20240;-52
2023/01/22 07:41:51;;;;;;;1999.90;667.40;;;1.50;99.90;;;;;;5024552;28;20264;-52
2023/01/22 07:44:19;;;;;;;1100.00;297.87;;;1.50;99.90;;;;;;5030677;28;20257;-52
2023/01/22 07:46:48;;;;;;;1999.90;464.67;;;1.50;99.90;;;;;;5031788;28;20210;-52
2023/01/22 07:49:16;;;;;;;157.17;85.07;;;1.50;99.90;;;;;;5031161;28;20218;-52
2023/01/22 07:51:44;;;;;;;994.10;267.27;;;1.50;99.90;;;;;;5031108;28;20811;-52
2023/01/22 07:54:12;;;;;;;1999.90;745.60;;;1.60;99.90;;;;;;5031399;28;20584;-52
2023/01/22 07:56:40;;;;;;;1999.90;558.47;;;1.60;99.90;;;;;;5031290;28;20246;-52
2023/01/22 07:59:08;;;;;;;844.40;190.80;;;1.60;99.90;;;;;;5031737;28;20241;-51
2023/01/22 08:01:36;;;;;;;336.07;111.77;;;1.60;99.90;;;;;;5028044;28;20297;-52
2023/01/22 08:04:06;;;;;;;758.60;194.90;;;1.60;99.90;;;;;;5031014;28;20352;-51
2023/01/22 08:06:34;;;;;;;410.07;118.67;;;1.60;99.90;;;;;;5024877;28;20293;-52
2023/01/22 08:09:04;;;;;;;1480.93;301.90;;;1.60;99.90;;;;;;5030700;28;20274;-51
2023/01/22 08:11:32;;;;;;;321.67;102.77;;;1.60;99.90;;;;;;5030675;28;20319;-52
2023/01/22 08:14:00;;;;;;;330.97;111.97;;;1.60;99.90;;;;;;5030591;28;21023;-52
2023/01/22 08:16:28;;;;;;;1999.90;375.67;;;1.60;99.90;;;;;;5031100;28;20262;-52
2023/01/22 08:18:56;;;;;;;1189.13;242.10;;;1.70;99.90;;;;;;5031214;28;20304;-52
2023/01/22 08:21:26;;;;;;;1439.67;294.00;;;1.60;99.90;;;;;;5029304;28;20433;-51
2023/01/22 08:23:54;;;;;;;1995.17;334.23;;;1.70;99.90;;;;;;5023284;28;20257;-52
2023/01/22 08:26:22;;;;;;;860.00;253.50;;;1.70;99.90;;;;;;5030560;28;20256;-51
2023/01/22 08:28:50;;;;;;;1999.90;918.43;;;1.60;99.90;;;;;;5031553;28;20237;-53
2023/01/22 08:31:18;;;;;;;1999.90;673.03;;;1.80;99.90;;;;;;5030835;28;20254;-52
2023/01/22 08:33:55;;;;;;;1999.90;481.60;;;1.70;99.90;;;;;;5030645;28;20223;-51
2023/01/22 08:36:23;;;;;;;892.23;236.83;;;1.70;99.90;;;;;;5030761;28;20602;-52
2023/01/22 08:38:53;;;;;;;1973.63;477.43;;;1.70;99.90;;;;;;5030349;28;20206;-53
2023/01/22 08:41:21;;;;;;;139.43;72.63;;;1.80;99.90;;;;;;5030694;28;20257;-52
2023/01/22 08:43:51;;;;;;;1122.20;262.10;;;1.80;99.90;;;;;;5026632;28;20219;-53
2023/01/22 08:46:19;;;;;;;1899.10;523.03;;;1.90;99.90;;;;;;5030209;28;20238;-53
2023/01/22 08:48:49;;;;;;;1953.83;416.60;;;1.90;99.90;;;;;;5025000;28;20249;-53
2023/01/22 08:51:17;;;;;;;848.53;200.50;;;1.80;99.90;;;;;;5034424;28;20281;-53
2023/01/22 08:53:45;;;;;;;338.23;106.30;;;1.80;99.90;;;;;;5020733;28;20678;-53
2023/01/22 08:56:14;;;;;;;70.13;61.03;;;1.90;99.90;;;;;;5030092;28;20260;-52
2023/01/22 08:58:42;;;;;;;1999.90;315.27;;;1.90;99.90;;;;;;5030072;28;20663;-52
2023/01/22 09:01:15;;;;;;;1156.03;218.70;;;1.90;99.90;;;;;;5029993;28;20279;-52
2023/01/22 09:03:43;;;;;;;479.60;167.83;;;1.90;99.90;;;;;;5029744;28;20221;-53
2023/01/22 09:06:12;;;;;;;207.50;121.47;;;1.80;99.90;;;;;;5033798;28;20233;-53
2023/01/22 09:08:40;;;;;;;1492.43;301.03;;;1.80;99.90;;;;;;5045312;28;20248;-52
2023/01/22 09:11:08;;;;;;;653.03;177.87;;;1.90;99.90;;;;;;5047229;28;20269;-52
2023/01/22 09:13:37;;;;;;;1483.33;265.37;;;1.90;99.90;;;;;;5026673;28;20241;-52
2023/01/22 09:16:09;;;;;;;228.80;110.97;;;1.90;99.90;;;;;;5022111;28;20285;-52
2023/01/22 09:18:38;;;;;;;891.77;231.53;;;1.90;99.90;;;;;;5025479;28;20244;-51
2023/01/22 09:21:07;;;;;;;220.13;103.00;;;1.90;99.90;;;;;;5025238;28;20221;-52
2023/01/22 09:23:35;;;;;;;99.57;68.97;;;1.90;99.90;;;;;;5027178;28;20248;-52
2023/01/22 09:26:03;;;;;;;148.80;65.27;;;2.00;99.90;;;;;;5027058;28;20263;-51
2023/01/22 09:28:31;;;;;;;237.57;102.00;;;2.00;99.90;;;;;;5034225;28;20202;-52
2023/01/22 09:31:04;;;;;;;344.87;163.90;;;2.00;99.90;;;;;;5021417;28;20655;-53
2023/01/22 09:33:32;;;;;;;39.47;35.40;;;2.00;99.90;;;;;;5024683;28;20214;-52
2023/01/22 09:36:08;;;;;;;1679.37;310.63;;;2.00;99.90;;;;;;5031283;28;20235;-52
2023/01/22 09:38:36;;;;;;;499.17;146.80;;;2.00;99.90;;;;;;5024489;28;20932;-53
2023/01/22 09:41:13;;;;;;;122.33;96.90;;;2.00;99.90;;;;;;5027088;28;20254;-53
2023/01/22 09:43:47;;;;;;;1999.90;394.17;;;2.10;99.90;;;;;;5027390;28;20262;-53
2023/01/22 09:46:21;;;;;;;1672.00;336.80;;;2.10;99.90;;;;;;5027024;28;20908;-53
2023/01/22 09:48:54;;;;;;;221.77;108.10;;;2.20;99.90;;;;;;5026953;28;20613;-53
2023/01/22 09:51:23;;;;;;;1999.90;507.83;;;2.20;99.90;;;;;;5025539;28;20242;-52
2023/01/22 09:53:56;;;;;;;379.90;150.50;;;2.20;99.90;;;;;;5020878;28;20216;-53
2023/01/22 09:56:33;;;;;;;861.87;277.07;;;2.30;99.90;;;;;;5027571;28;20236;-53
2023/01/22 09:59:05;;;;;;;284.73;136.27;;;2.40;99.90;;;;;;5028870;28;20217;-52
2023/01/22 10:01:35;;;;;;;724.87;176.77;;;2.40;99.90;;;;;;5027588;28;20846;-52
2023/01/22 10:04:06;;;;;;;1897.70;368.30;;;2.40;99.90;;;;;;5027166;28;20214;-52
2023/01/22 10:06:35;;;;;;;183.80;98.03;;;2.40;99.90;;;;;;5019527;28;20238;-51
2023/01/22 10:09:12;;;;;;;433.33;133.07;;;2.40;99.90;;;;;;5028545;28;20294;-52
2023/01/22 10:11:41;;;;;;;76.90;69.60;;;2.40;99.90;;;;;;5026136;28;20320;-53
2023/01/22 10:14:14;;;;;;;515.33;171.10;;;2.40;99.90;;;;;;5028391;28;20203;-52
2023/01/22 10:16:45;;;;;;;1461.47;345.77;;;2.50;99.90;;;;;;5028160;28;20256;-52
2023/01/22 10:19:20;;;;;;;1061.93;296.67;;;2.70;99.90;;;;;;5026803;28;20221;-52
2023/01/22 10:21:52;;;;;;;556.10;228.20;;;2.80;99.90;;;;;;5028542;28;20229;-52
2023/01/22 10:24:20;;;;;;;421.80;165.87;;;2.70;99.90;;;;;;5028169;28;20229;-52
2023/01/22 10:26:51;;;;;;;1624.43;328.03;;;2.70;99.90;;;;;;5027698;28;20699;-53
2023/01/22 10:29:24;;;;;;;1477.23;384.77;;;2.70;99.90;;;;;;5027960;28;20676;-52
2023/01/22 10:31:56;;;;;;;1990.37;393.00;;;2.60;99.90;;;;;;5025458;28;20215;-51
2023/01/22 10:34:29;;;;;;;103.90;93.73;;;2.60;99.90;;;;;;5028356;28;20836;-53
2023/01/22 10:37:01;;;;;;;129.63;63.37;;;2.70;99.90;;;;;;5028708;28;20206;-51
2023/01/22 10:39:40;;;;;;;1999.90;512.80;;;2.90;99.90;;;;;;5028032;28;20203;-52
2023/01/22 10:42:16;;;;;;;745.37;141.40;;;3.00;99.90;;;;;;5027745;28;20212;-53
2023/01/22 10:44:44;;;;;;;1999.90;702.40;;;3.10;99.90;;;;;;5030490;28;20231;-52
2023/01/22 10:47:20;;;;;;;1999.90;482.20;;;3.00;99.90;;;;;;5042353;28;20618;-53
2023/01/22 10:49:49;;;;;;;916.90;252.47;;;3.00;99.90;;;;;;5044631;28;20233;-52
2023/01/22 10:52:23;;;;;;;107.30;57.10;;;2.90;99.90;;;;;;5036517;28;20213;-53
2023/01/22 10:54:55;;;;;;;1999.90;532.03;;;3.00;99.90;;;;;;5025672;28;20227;-53
2023/01/22 10:57:30;;;;;;;1265.87;344.30;;;3.00;99.90;;;;;;5034239;28;20780;-53
2023/01/22 11:00:05;;;;;;;662.30;190.27;;;3.00;99.90;;;;;;5026596;28;20221;-53
2023/01/22 11:02:36;;;;;;;1999.90;851.70;;;2.90;99.90;;;;;;5020396;28;20215;-53
2023/01/22 11:05:14;;;;;;;936.87;334.63;;;3.10;99.90;;;;;;5026742;28;20285;-52
2023/01/22 11:07:44;;;;;;;343.73;191.77;;;3.00;99.90;;;;;;5027397;28;20233;-52
2023/01/22 11:10:19;;;;;;;367.27;187.33;;;3.00;99.90;;;;;;5027983;28;20316;-53
2023/01/22 11:12:52;;;;;;;1999.90;463.70;;;3.00;99.90;;;;;;5032065;28;20206;-53
2023/01/22 11:15:25;;;;;;;1330.53;324.77;;;3.10;99.90;;;;;;5032113;28;20207;-53
2023/01/22 11:17:57;;;;;;;179.93;76.87;;;3.00;99.90;;;;;;5032048;28;20242;-53
2023/01/22 11:20:29;;;;;;;204.53;125.97;;;3.00;99.90;;;;;;5031984;28;20304;-52
2023/01/22 11:23:11;;;;;;;1986.27;501.17;;;3.10;99.90;;;;;;5031746;28;20693;-52
2023/01/22 11:25:44;;;;;;;1999.90;616.07;;;3.20;99.90;;;;;;5031812;28;20705;-51
2023/01/22 11:28:28;;;;;;;735.80;191.43;;;3.30;99.90;;;;;;5031943;28;20582;-53
2023/01/22 11:31:08;;;;;;;1999.90;502.13;;;3.20;99.90;;;;;;5031641;28;20229;-52
2023/01/22 11:33:49;;;;;;;1999.90;670.13;;;3.10;99.90;;;;;;5031632;28;20296;-52
2023/01/22 11:36:25;;;;;;;457.70;131.07;;;3.00;99.90;;;;;;5031768;28;20209;-52
2023/01/22 11:38:56;;;;;;;521.73;148.63;;;2.90;99.90;;;;;;5030873;28;20252;-53
2023/01/22 11:41:36;;;;;;;350.13;135.07;;;3.00;99.90;;;;;;5031546;28;20230;-51
2023/01/22 11:44:27;;;;;;;259.37;149.47;;;3.00;99.90;;;;;;5022139;28;20237;-52
2023/01/22 11:47:17;;;;;;;1288.33;270.07;;;3.00;99.90;;;;;;5022976;28;20784;-52
2023/01/22 11:50:00;;;;;;;163.27;112.83;;;2.90;99.90;;;;;;5031667;28;20217;-52
2023/01/22 11:52:42;;;;;;;687.43;164.30;;;2.90;99.90;;;;;;5020993;28;20664;-53
2023/01/22 11:55:29;;;;;;;325.83;130.70;;;3.00;99.90;;;;;;5031395;28;20294;-53
2023/01/22 11:58:06;;;;;;;260.30;119.07;;;3.00;99.90;;;;;;5031704;28;20294;-53
2023/01/22 12:00:43;;;;;;;1827.23;401.37;;;3.00;99.90;;;;;;5018661;28;20856;-52
2023/01/22 12:03:43;;;;;;;1595.23;423.47;;;2.90;99.90;;;;;;5031289;28;20241;-53
2023/01/22 12:06:23;;;;;;;555.17;184.20;;;2.90;99.90;;;;;;5013141;28;20591;-53
2023/01/22 12:09:03;;;;;;;795.43;230.10;;;2.90;99.90;;;;;;5030964;28;20294;-53
2023/01/22 12:12:00;;;;;;;436.47;135.37;;;2.90;99.90;;;;;;5031369;28;20814;-53
2023/01/22 12:14:41;;;;;;;1460.53;344.47;;;2.90;99.90;;;;;;5027890;28;20211;-53
2023/01/22 12:17:19;;;;;;;344.73;118.90;;;2.90;99.90;;;;;;5031620;28;20238;-53
2023/01/22 12:20:08;;;;;;;1999.90;435.60;;;2.90;99.90;;;;;;5031573;28;20269;-52
2023/01/22 12:22:43;;;;;;;1999.90;635.03;;;3.00;99.90;;;;;;5030664;28;20614;-53
2023/01/22 12:25:17;;;;;;;392.00;161.43;;;2.90;99.90;;;;;;5030393;28;20208;-50
2023/01/22 12:27:52;;;;;;;1999.90;589.67;;;2.90;99.90;;;;;;5031102;28;20230;-51
2023/01/22 12:30:23;;;;;;;1999.90;451.60;;;2.90;99.90;;;;;;5030924;28;20255;-50
2023/01/22 12:32:55;;;;;;;66.10;60.10;;;2.90;99.90;;;;;;5030474;28;20247;-53
2023/01/22 12:35:24;;;;;;;511.67;144.73;;;2.90;99.90;;;;;;5030535;28;20670;-52
2023/01/22 12:38:02;;;;;;;717.90;204.37;;;2.90;99.90;;;;;;5028825;28;20215;-52